CDU weather

Camden Airport
New South Wales, Australia

Public forecast

Using degrees Celsius for public forecast. Weather courtesy of forecast.io.

METAR (pilot weather report)

Closest report is Sydney Kingsford Smith International Airport, 25.0 nm (46.4 km) ENE. Retrieved 2017/12/11 21:30 UTC (22 minutes ago):

YSSY 112130Z 32006KT 9999 FEW022 24/17 Q1019 NOSIG

TAF (pilot weather forecast)

Closest forecast is Sydney Kingsford Smith International Airport, 25.0 nm (46.4 km) ENE. Retrieved 2017/12/11 18:00 UTC (4 hours ago):

TAF YSSY 111633Z 1118/1224 04005KT 9999 SCT020 FM112200 04012KT 9999 SCT035 FM120100 05015G25KT CAVOK FM121000 03010KT CAVOK